createdAt,value
2023-01-28T00:00:25.696Z,90.72
2023-01-28T00:01:25.698Z,91.08
2023-01-28T00:02:25.738Z,90.62
2023-01-28T00:03:25.725Z,90.83
2023-01-28T00:04:25.648Z,90.62
2023-01-28T00:05:25.667Z,90.83
2023-01-28T00:06:25.625Z,90.93
2023-01-28T00:07:25.624Z,90.93
2023-01-28T00:08:25.697Z,90.83
2023-01-28T00:09:25.593Z,90.56
2023-01-28T00:10:25.589Z,90.20
2023-01-28T00:11:25.563Z,90.66
2023-01-28T00:12:25.587Z,90.93
2023-01-28T00:13:25.541Z,90.87
2023-01-28T00:14:25.697Z,90.52
2023-01-28T00:15:25.538Z,90.83
2023-01-28T00:16:25.557Z,90.83
2023-01-28T00:17:25.522Z,90.20
2023-01-28T00:18:25.490Z,90.52
2023-01-28T00:19:25.502Z,90.56
2023-01-28T00:20:25.496Z,90.52
2023-01-28T00:21:25.468Z,91.03
2023-01-28T00:22:25.443Z,90.66
2023-01-28T00:23:25.442Z,90.93
2023-01-28T00:24:25.569Z,90.72
2023-01-28T00:25:25.477Z,90.62
2023-01-28T00:26:25.419Z,90.62
2023-01-28T00:27:25.416Z,90.72
2023-01-28T00:28:25.370Z,90.83
2023-01-28T00:29:25.362Z,90.72
2023-01-28T00:30:25.368Z,90.97
2023-01-28T00:31:25.413Z,90.87
2023-01-28T00:32:25.367Z,90.83
2023-01-28T00:33:25.416Z,90.72
2023-01-28T00:34:25.307Z,90.72
2023-01-28T00:35:25.296Z,90.97
2023-01-28T00:36:25.339Z,90.72
2023-01-28T00:37:25.272Z,90.83
2023-01-28T00:38:25.293Z,90.66
2023-01-28T00:39:25.357Z,90.52
2023-01-28T00:40:25.259Z,90.83
2023-01-28T00:41:25.226Z,91.03
2023-01-28T00:42:25.213Z,91.03
2023-01-28T00:43:25.217Z,90.97
2023-01-28T00:44:25.312Z,91.03
2023-01-28T00:45:25.183Z,90.93
2023-01-28T00:46:25.263Z,91.03
2023-01-28T00:47:25.156Z,90.83
2023-01-28T00:48:25.149Z,90.62
2023-01-28T00:49:25.133Z,90.62
2023-01-28T00:50:25.159Z,90.66
2023-01-28T00:51:25.144Z,91.03
2023-01-28T00:52:25.107Z,91.08
2023-01-28T00:53:25.218Z,90.93
2023-01-28T00:54:25.082Z,91.03
2023-01-28T00:55:25.067Z,90.83
2023-01-28T00:56:25.128Z,91.03
2023-01-28T00:57:25.074Z,90.93
2023-01-28T00:58:25.037Z,90.93
2023-01-28T00:59:25.029Z,90.83
2023-01-28T01:00:25.034Z,91.08
2023-01-28T01:01:25.119Z,90.72
2023-01-28T01:02:25.078Z,90.83
2023-01-28T01:03:25.091Z,90.62
2023-01-28T01:04:24.970Z,90.83
2023-01-28T01:05:24.979Z,90.72
2023-01-28T01:06:24.945Z,90.62
2023-01-28T01:07:24.933Z,90.72
2023-01-28T01:08:25.042Z,90.62
2023-01-28T01:09:24.912Z,90.93
2023-01-28T01:10:24.901Z,90.83
2023-01-28T01:11:24.915Z,90.93
2023-01-28T01:12:24.919Z,90.93
2023-01-28T01:13:24.862Z,90.83
2023-01-28T01:14:24.891Z,90.72
2023-01-28T01:15:24.844Z,90.83
2023-01-28T01:16:24.841Z,90.62
2023-01-28T01:17:24.825Z,90.93
2023-01-28T01:18:24.806Z,90.83
2023-01-28T01:19:24.821Z,90.37
2023-01-28T01:20:24.819Z,90.31
2023-01-28T01:21:24.768Z,90.31
2023-01-28T01:22:24.854Z,90.10
2023-01-28T01:23:24.747Z,90.00
2023-01-28T01:24:24.893Z,90.62
2023-01-28T01:25:24.739Z,90.41
2023-01-28T01:26:24.776Z,90.20
2023-01-28T01:27:24.711Z,90.83
2023-01-28T01:28:24.714Z,90.52
2023-01-28T01:29:24.690Z,90.93
2023-01-28T01:30:24.673Z,90.83
2023-01-28T01:31:24.770Z,90.52
2023-01-28T01:32:24.675Z,90.83
2023-01-28T01:33:24.637Z,91.03
2023-01-28T01:34:24.623Z,91.03
2023-01-28T01:35:24.613Z,90.83
2023-01-28T01:36:24.608Z,91.03
2023-01-28T01:37:24.592Z,90.93
2023-01-28T01:38:24.629Z,90.83
2023-01-28T01:39:24.572Z,90.20
2023-01-28T01:40:24.557Z,91.03
2023-01-28T01:41:24.552Z,90.20
2023-01-28T01:42:24.533Z,90.00
2023-01-28T01:43:24.627Z,90.00
2023-01-28T01:44:24.573Z,90.31
2023-01-28T01:45:24.507Z,90.31
2023-01-28T01:46:24.561Z,89.69
2023-01-28T01:47:24.488Z,89.69
2023-01-28T01:48:24.513Z,89.69
2023-01-28T01:49:24.455Z,89.48
2023-01-28T01:50:24.479Z,89.38
2023-01-28T01:51:24.423Z,89.48
2023-01-28T01:52:24.440Z,89.69
2023-01-28T01:53:24.401Z,90.00
2023-01-28T01:54:24.520Z,90.31
2023-01-28T01:55:24.412Z,90.00
2023-01-28T01:56:24.500Z,90.10
2023-01-28T01:57:24.363Z,90.52
2023-01-28T01:58:24.375Z,90.83
2023-01-28T01:59:24.342Z,91.03
2023-01-28T02:00:24.378Z,91.03
2023-01-28T02:01:24.329Z,90.72
2023-01-28T02:02:24.460Z,91.03
2023-01-28T02:03:24.343Z,91.03
2023-01-28T02:04:24.281Z,90.87
2023-01-28T02:05:24.273Z,90.83
2023-01-28T02:06:24.264Z,90.41
2023-01-28T02:07:24.282Z,90.20
2023-01-28T02:08:24.256Z,90.20
2023-01-28T02:09:24.225Z,90.00
2023-01-28T02:10:24.236Z,90.00
2023-01-28T02:11:24.207Z,90.20
2023-01-28T02:12:24.187Z,90.52
2023-01-28T02:13:24.177Z,91.03
2023-01-28T02:14:30.853Z,90.62
2023-01-28T02:15:25.151Z,90.66
2023-01-28T02:16:24.219Z,90.93
2023-01-28T02:17:24.133Z,90.83
2023-01-28T02:18:24.140Z,90.83
2023-01-28T02:19:24.108Z,90.62
2023-01-28T02:20:24.258Z,90.93
2023-01-28T02:21:24.097Z,90.93
2023-01-28T02:22:24.075Z,90.87
2023-01-28T02:23:24.066Z,90.93
2023-01-28T02:24:24.116Z,90.97
2023-01-28T02:25:24.043Z,90.93
2023-01-28T02:26:24.179Z,90.72
2023-01-28T02:27:24.028Z,90.72
2023-01-28T02:28:24.091Z,90.62
2023-01-28T02:29:24.000Z,90.93
2023-01-28T02:30:23.988Z,90.93
2023-01-28T02:31:24.089Z,90.72
2023-01-28T02:32:24.019Z,90.93
2023-01-28T02:33:23.963Z,90.93
2023-01-28T02:34:23.945Z,90.72
2023-01-28T02:35:23.942Z,91.03
2023-01-28T02:36:23.919Z,90.62
2023-01-28T02:37:23.904Z,90.62
2023-01-28T02:38:23.943Z,90.52
2023-01-28T02:39:23.889Z,90.83
2023-01-28T02:40:23.916Z,90.62
2023-01-28T02:41:23.861Z,91.03
2023-01-28T02:42:23.972Z,90.62
2023-01-28T02:43:23.832Z,90.83
2023-01-28T02:44:23.872Z,90.93
2023-01-28T02:45:23.821Z,90.62
2023-01-28T02:46:23.839Z,91.24
2023-01-28T02:47:23.814Z,90.93
2023-01-28T02:48:23.827Z,90.83
2023-01-28T02:49:23.769Z,91.03
2023-01-28T02:50:23.860Z,90.52
2023-01-28T02:51:23.740Z,90.62
2023-01-28T02:52:23.799Z,91.03
2023-01-28T02:53:23.718Z,91.03
2023-01-28T02:54:23.713Z,90.83
2023-01-28T02:55:23.720Z,90.83
2023-01-28T02:56:23.741Z,90.83
2023-01-28T02:57:23.674Z,90.83
2023-01-28T02:58:23.666Z,90.72
2023-01-28T02:59:23.652Z,90.62
2023-01-28T03:00:23.640Z,90.72
2023-01-28T03:01:23.696Z,90.62
2023-01-28T03:02:23.701Z,90.62
2023-01-28T03:03:23.609Z,90.72
2023-01-28T03:04:23.618Z,90.83
2023-01-28T03:05:23.584Z,90.93
2023-01-28T03:06:23.601Z,90.83
2023-01-28T03:07:23.557Z,90.72
2023-01-28T03:08:23.575Z,90.62
2023-01-28T03:09:23.543Z,90.93
2023-01-28T03:10:23.521Z,90.62
2023-01-28T03:11:23.513Z,90.72
2023-01-28T03:12:23.504Z,90.78
2023-01-28T03:13:23.490Z,90.83
2023-01-28T03:14:23.600Z,90.58
2023-01-28T03:15:23.468Z,90.93
2023-01-28T03:16:23.603Z,90.68
2023-01-28T03:17:25.118Z,90.78
2023-01-28T03:18:23.456Z,90.78
2023-01-28T03:19:23.423Z,90.68
2023-01-28T03:20:23.502Z,90.72
2023-01-28T03:21:23.416Z,90.89
2023-01-28T03:22:23.393Z,90.47
2023-01-28T03:23:23.390Z,90.68
2023-01-28T03:24:23.415Z,90.68
2023-01-28T03:25:23.483Z,90.78
2023-01-28T03:26:23.395Z,90.78
2023-01-28T03:27:23.333Z,90.68
2023-01-28T03:28:23.330Z,90.99
2023-01-28T03:29:23.319Z,90.47
2023-01-28T03:30:23.296Z,90.58
2023-01-28T03:31:23.287Z,90.52
2023-01-28T03:32:23.338Z,90.52
2023-01-28T03:33:23.263Z,90.20
2023-01-28T03:34:23.357Z,90.78
2023-01-28T03:35:23.236Z,90.93
2023-01-28T03:36:23.262Z,90.93
2023-01-28T03:37:23.215Z,91.03
2023-01-28T03:38:23.248Z,90.72
2023-01-28T03:39:23.208Z,90.52
2023-01-28T03:40:23.180Z,90.00
2023-01-28T03:41:23.178Z,90.00
2023-01-28T03:42:23.177Z,90.00
2023-01-28T03:43:23.156Z,90.31
2023-01-28T03:44:23.232Z,89.89
2023-01-28T03:45:23.132Z,89.38
2023-01-28T03:46:23.188Z,90.10
2023-01-28T03:47:23.122Z,90.10
2023-01-28T03:48:23.101Z,89.79
2023-01-28T03:49:23.083Z,90.14
2023-01-28T03:50:23.116Z,90.31
2023-01-28T03:51:23.054Z,90.00
2023-01-28T03:52:23.074Z,90.10
2023-01-28T03:53:23.057Z,90.10
2023-01-28T03:54:23.030Z,90.04
2023-01-28T03:55:23.116Z,89.69
2023-01-28T03:56:23.013Z,89.73
2023-01-28T03:57:23.012Z,89.89
2023-01-28T03:58:22.973Z,89.89
2023-01-28T03:59:22.996Z,90.00
2023-01-28T04:00:22.956Z,89.79
2023-01-28T04:01:23.030Z,89.79
2023-01-28T04:02:22.969Z,90.14
2023-01-28T04:03:22.916Z,90.00
2023-01-28T04:04:23.016Z,90.20
2023-01-28T04:05:22.902Z,90.20
2023-01-28T04:06:22.885Z,90.14
2023-01-28T04:07:22.906Z,90.10
2023-01-28T04:08:22.920Z,90.04
2023-01-28T04:09:22.874Z,90.10
2023-01-28T04:10:22.835Z,90.10
2023-01-28T04:11:22.836Z,89.89
2023-01-28T04:12:22.815Z,90.04
2023-01-28T04:13:22.807Z,89.89
2023-01-28T04:14:22.940Z,90.04
2023-01-28T04:15:22.789Z,90.04
2023-01-28T04:16:22.833Z,90.04
2023-01-28T04:17:22.755Z,89.73
2023-01-28T04:18:22.774Z,89.83
2023-01-28T04:19:22.735Z,89.94
2023-01-28T04:20:22.810Z,89.94
2023-01-28T04:21:22.718Z,89.94
2023-01-28T04:22:22.706Z,90.04
2023-01-28T04:23:22.764Z,90.04
2023-01-28T04:24:22.743Z,90.25
2023-01-28T04:25:22.694Z,90.14
2023-01-28T04:26:22.768Z,90.04
2023-01-28T04:27:22.647Z,90.25
2023-01-28T04:28:22.712Z,90.04
2023-01-28T04:29:22.631Z,89.73
2023-01-28T04:30:22.634Z,89.56
2023-01-28T04:31:22.649Z,89.94
2023-01-28T04:32:22.700Z,90.35
2023-01-28T04:33:22.592Z,89.73
2023-01-28T04:34:22.661Z,90.14
2023-01-28T04:35:22.561Z,89.83
2023-01-28T04:36:22.665Z,89.73
2023-01-28T04:37:22.539Z,89.94
2023-01-28T04:38:22.606Z,89.62
2023-01-28T04:39:22.516Z,89.94
2023-01-28T04:40:22.530Z,90.35
2023-01-28T04:41:22.493Z,89.67
2023-01-28T04:42:22.494Z,89.67
2023-01-28T04:43:22.479Z,89.98
2023-01-28T04:44:22.471Z,90.39
2023-01-28T04:45:22.450Z,90.39
2023-01-28T04:46:22.569Z,90.35
2023-01-28T04:47:22.428Z,90.04
2023-01-28T04:48:22.412Z,90.29
2023-01-28T04:49:22.412Z,90.08
2023-01-28T04:50:22.417Z,89.98
2023-01-28T04:51:22.521Z,90.08
2023-01-28T04:52:22.369Z,90.29
2023-01-28T04:53:22.360Z,90.60
2023-01-28T04:54:22.350Z,90.29
2023-01-28T04:55:22.337Z,90.29
2023-01-28T04:56:22.407Z,90.70
2023-01-28T04:57:22.312Z,90.29
2023-01-28T04:58:22.301Z,90.70
2023-01-28T04:59:22.289Z,90.39
2023-01-28T05:00:22.306Z,89.77
2023-01-28T05:01:22.272Z,90.08
2023-01-28T05:02:22.443Z,90.66
2023-01-28T05:03:22.265Z,90.29
2023-01-28T05:04:22.231Z,90.29
2023-01-28T05:05:22.224Z,90.29
2023-01-28T05:06:22.215Z,90.25
2023-01-28T05:07:22.228Z,90.25
2023-01-28T05:08:22.231Z,90.56
2023-01-28T05:09:22.199Z,90.70
2023-01-28T05:10:22.172Z,90.45
2023-01-28T05:11:22.163Z,90.56
2023-01-28T05:12:22.167Z,90.45
2023-01-28T05:13:22.138Z,90.45
2023-01-28T05:14:22.141Z,90.29
2023-01-28T05:15:22.110Z,90.66
2023-01-28T05:16:22.215Z,90.08
2023-01-28T05:17:22.163Z,90.45
2023-01-28T05:18:22.139Z,90.45
2023-01-28T05:19:22.071Z,90.45
2023-01-28T05:20:22.144Z,90.25
2023-01-28T05:21:22.040Z,90.35
2023-01-28T05:22:22.068Z,90.56
2023-01-28T05:23:22.049Z,90.77
2023-01-28T05:24:22.132Z,90.45
2023-01-28T05:25:21.999Z,90.39
2023-01-28T05:26:22.042Z,90.25
2023-01-28T05:27:21.994Z,90.77
2023-01-28T05:28:21.991Z,90.25
2023-01-28T05:29:21.956Z,90.29
2023-01-28T05:30:21.985Z,90.04
2023-01-28T05:31:21.938Z,90.45
2023-01-28T05:32:22.095Z,90.04
2023-01-28T05:33:21.915Z,90.04
2023-01-28T05:34:21.916Z,90.04
2023-01-28T05:35:21.883Z,90.60
2023-01-28T05:36:21.911Z,90.08
2023-01-28T05:37:21.862Z,90.04
2023-01-28T05:38:21.905Z,90.08
2023-01-28T05:39:21.844Z,90.25
2023-01-28T05:40:21.845Z,90.08
2023-01-28T05:41:21.822Z,90.35
2023-01-28T05:42:21.836Z,90.04
2023-01-28T05:43:21.800Z,90.04
2023-01-28T05:44:21.885Z,90.04
2023-01-28T05:45:21.857Z,90.04
2023-01-28T05:46:21.781Z,90.04
2023-01-28T05:47:21.777Z,90.08
2023-01-28T05:48:21.771Z,90.35
2023-01-28T05:49:21.731Z,90.39
2023-01-28T05:50:21.746Z,89.94
2023-01-28T05:51:21.723Z,89.73
2023-01-28T05:52:21.697Z,89.73
2023-01-28T05:53:21.702Z,89.94
2023-01-28T05:54:21.733Z,90.25
2023-01-28T05:55:21.662Z,90.19
2023-01-28T05:56:21.666Z,90.04
2023-01-28T05:57:21.643Z,90.04
2023-01-28T05:58:21.692Z,89.83
2023-01-28T05:59:21.622Z,89.73
2023-01-28T06:00:21.647Z,89.87
2023-01-28T06:01:21.646Z,90.04
2023-01-28T06:02:21.676Z,90.04
2023-01-28T06:03:21.611Z,89.94
2023-01-28T06:04:21.578Z,90.14
2023-01-28T06:05:21.704Z,90.14
2023-01-28T06:06:21.541Z,90.56
2023-01-28T06:07:21.637Z,90.56
2023-01-28T06:08:21.560Z,90.97
2023-01-28T06:09:21.510Z,90.45
2023-01-28T06:10:21.581Z,90.56
2023-01-28T06:11:21.507Z,90.56
2023-01-28T06:12:21.481Z,90.04
2023-01-28T06:13:21.462Z,90.04
2023-01-28T06:14:21.460Z,90.04
2023-01-28T06:15:21.455Z,90.14
2023-01-28T06:16:21.444Z,89.94
2023-01-28T06:17:21.413Z,90.04
2023-01-28T06:18:21.425Z,90.04
2023-01-28T06:19:21.391Z,90.04
2023-01-28T06:20:21.526Z,90.14
2023-01-28T06:21:21.361Z,90.35
2023-01-28T06:22:21.360Z,89.73
2023-01-28T06:23:21.354Z,90.14
2023-01-28T06:24:21.467Z,89.83
2023-01-28T06:25:21.318Z,90.14
2023-01-28T06:26:21.379Z,90.35
2023-01-28T06:27:21.294Z,90.35
2023-01-28T06:28:21.321Z,90.35
2023-01-28T06:29:21.310Z,90.25
2023-01-28T06:30:21.268Z,90.14
2023-01-28T06:31:21.255Z,90.25
2023-01-28T06:32:21.425Z,90.35
2023-01-28T06:33:21.239Z,89.73
2023-01-28T06:34:21.216Z,89.52
2023-01-28T06:35:21.208Z,89.52
2023-01-28T06:36:21.216Z,89.73
2023-01-28T06:37:21.281Z,89.73
2023-01-28T06:38:21.235Z,89.69
2023-01-28T06:39:21.162Z,89.69
2023-01-28T06:40:21.148Z,89.73
2023-01-28T06:41:21.141Z,90.35
2023-01-28T06:42:21.237Z,89.94
2023-01-28T06:43:21.119Z,90.14
2023-01-28T06:44:21.254Z,90.10
2023-01-28T06:45:21.091Z,90.14
2023-01-28T06:46:21.182Z,90.00
2023-01-28T06:47:21.125Z,90.20
2023-01-28T06:48:21.090Z,90.00
2023-01-28T06:49:21.117Z,89.73
2023-01-28T06:50:21.080Z,89.69
2023-01-28T06:51:21.038Z,89.58
2023-01-28T06:52:21.015Z,89.69
2023-01-28T06:53:21.020Z,89.79
2023-01-28T06:54:20.994Z,89.69
2023-01-28T06:55:20.984Z,89.48
2023-01-28T06:56:20.982Z,89.48
2023-01-28T06:57:20.967Z,89.58
2023-01-28T06:58:20.948Z,89.75
2023-01-28T06:59:20.937Z,89.89
2023-01-28T07:00:20.928Z,89.96
2023-01-28T07:01:20.911Z,89.89
2023-01-28T07:02:21.001Z,89.79
2023-01-28T07:03:21.038Z,89.54
2023-01-28T07:04:20.910Z,89.54
2023-01-28T07:05:20.872Z,89.65
2023-01-28T07:06:20.856Z,89.65
2023-01-28T07:07:20.867Z,89.54
2023-01-28T07:08:20.862Z,89.54
2023-01-28T07:09:20.824Z,89.65
2023-01-28T07:10:20.820Z,89.71
2023-01-28T07:11:20.821Z,89.29
2023-01-28T07:12:20.791Z,89.54
2023-01-28T07:13:20.778Z,89.40
2023-01-28T07:14:20.825Z,89.92
2023-01-28T07:15:20.754Z,89.61
2023-01-28T07:16:20.750Z,89.29
2023-01-28T07:17:20.847Z,89.40
2023-01-28T07:18:20.744Z,89.40
2023-01-28T07:19:20.716Z,89.56
2023-01-28T07:20:20.763Z,89.29
2023-01-28T07:21:20.686Z,89.67
2023-01-28T07:22:20.672Z,89.56
2023-01-28T07:23:20.668Z,89.56
2023-01-28T07:24:20.760Z,89.56
2023-01-28T07:25:20.649Z,89.67
2023-01-28T07:26:20.716Z,89.42
2023-01-28T07:27:20.620Z,89.56
2023-01-28T07:28:20.716Z,88.84
2023-01-28T07:29:20.594Z,88.90
2023-01-28T07:30:20.588Z,89.01
2023-01-28T07:31:20.720Z,89.22
2023-01-28T07:32:20.607Z,89.01
2023-01-28T07:33:20.554Z,89.52
2023-01-28T07:34:20.534Z,89.22
2023-01-28T07:35:20.527Z,89.52
2023-01-28T07:36:20.543Z,89.52
2023-01-28T07:37:20.515Z,89.22
2023-01-28T07:38:20.655Z,89.22
2023-01-28T07:39:20.496Z,89.32
2023-01-28T07:40:20.507Z,89.22
2023-01-28T07:41:20.463Z,89.28
2023-01-28T07:42:20.446Z,89.52
2023-01-28T07:43:20.442Z,89.17
2023-01-28T07:44:20.463Z,89.62
2023-01-28T07:45:20.436Z,89.22
2023-01-28T07:46:20.404Z,89.48
2023-01-28T07:47:20.518Z,89.28
2023-01-28T07:48:20.383Z,88.96
2023-01-28T07:49:20.387Z,89.48
2023-01-28T07:50:20.420Z,89.48
2023-01-28T07:51:20.352Z,89.01
2023-01-28T07:52:20.373Z,89.48
2023-01-28T07:53:20.336Z,89.38
2023-01-28T07:54:20.322Z,88.86
2023-01-28T07:55:20.306Z,89.17
2023-01-28T07:56:20.377Z,88.96
2023-01-28T07:57:20.285Z,88.96
2023-01-28T07:58:20.267Z,89.03
2023-01-28T07:59:20.260Z,89.03
2023-01-28T08:00:20.287Z,88.71
2023-01-28T08:01:20.297Z,88.92
2023-01-28T08:02:20.338Z,88.61
2023-01-28T08:03:20.205Z,88.71
2023-01-28T08:04:20.280Z,88.82
2023-01-28T08:05:20.364Z,88.71
2023-01-28T08:06:20.195Z,88.92
2023-01-28T08:07:20.171Z,88.78
2023-01-28T08:08:20.278Z,88.68
2023-01-28T08:09:20.152Z,88.31
2023-01-28T08:10:20.163Z,88.68
2023-01-28T08:11:20.124Z,88.61
2023-01-28T08:12:20.112Z,88.82
2023-01-28T08:13:20.107Z,88.82
2023-01-28T08:14:20.150Z,88.78
2023-01-28T08:15:20.074Z,88.92
2023-01-28T08:16:20.121Z,88.57
2023-01-28T08:17:20.069Z,88.68
2023-01-28T08:18:20.044Z,88.92
2023-01-28T08:19:20.051Z,88.78
2023-01-28T08:20:20.038Z,88.78
2023-01-28T08:21:20.030Z,88.41
2023-01-28T08:22:19.989Z,88.57
2023-01-28T08:23:21.030Z,88.51
2023-01-28T08:24:20.109Z,88.61
2023-01-28T08:25:19.962Z,88.61
2023-01-28T08:26:20.048Z,88.82
2023-01-28T08:27:19.937Z,88.92
2023-01-28T08:28:19.930Z,88.68
2023-01-28T08:29:19.912Z,88.68
2023-01-28T08:30:19.905Z,88.78
2023-01-28T08:31:20.021Z,88.78
2023-01-28T08:32:20.002Z,89.09
2023-01-28T08:33:19.876Z,88.98
2023-01-28T08:34:19.865Z,88.98
2023-01-28T08:35:19.853Z,88.47
2023-01-28T08:36:19.850Z,88.68
2023-01-28T08:37:19.832Z,88.68
2023-01-28T08:38:19.843Z,88.68
2023-01-28T08:39:19.803Z,88.68
2023-01-28T08:40:19.824Z,88.57
2023-01-28T08:41:19.848Z,88.74
2023-01-28T08:42:19.769Z,88.64
2023-01-28T08:43:19.757Z,88.53
2023-01-28T08:44:19.774Z,88.53
2023-01-28T08:45:19.742Z,88.43
2023-01-28T08:46:19.801Z,88.43
2023-01-28T08:47:19.712Z,88.32
2023-01-28T08:48:19.703Z,88.12
2023-01-28T08:49:19.692Z,88.12
2023-01-28T08:50:19.694Z,88.16
2023-01-28T08:51:19.688Z,88.22
2023-01-28T08:52:19.653Z,88.32
2023-01-28T08:53:19.646Z,88.22
2023-01-28T08:54:19.647Z,88.02
2023-01-28T08:55:19.626Z,88.22
2023-01-28T08:56:19.664Z,88.22
2023-01-28T08:57:20.638Z,87.81
2023-01-28T08:58:19.598Z,88.12
2023-01-28T08:59:19.617Z,87.81
2023-01-28T09:00:19.560Z,87.92
2023-01-28T09:01:19.594Z,87.81
2023-01-28T09:02:31.128Z,87.92
2023-01-28T09:03:20.544Z,88.32
2023-01-28T09:04:19.517Z,87.81
2023-01-28T09:05:19.513Z,88.22
2023-01-28T09:06:19.490Z,88.43
2023-01-28T09:07:19.522Z,87.92
2023-01-28T09:08:19.486Z,87.92
2023-01-28T09:09:19.471Z,88.32
2023-01-28T09:10:19.459Z,88.32
2023-01-28T09:11:19.441Z,88.53
2023-01-28T09:12:19.469Z,87.81
2023-01-28T09:13:19.419Z,88.02
2023-01-28T09:14:19.460Z,88.22
2023-01-28T09:15:19.403Z,87.98
2023-01-28T09:16:19.447Z,88.18
2023-01-28T09:17:19.378Z,88.29
2023-01-28T09:18:19.376Z,88.22
2023-01-28T09:19:19.381Z,88.18
2023-01-28T09:20:19.406Z,87.87
2023-01-28T09:21:19.338Z,88.49
2023-01-28T09:22:19.315Z,88.49
2023-01-28T09:23:19.303Z,88.80
2023-01-28T09:24:19.327Z,88.70
2023-01-28T09:25:19.282Z,88.80
2023-01-28T09:26:19.276Z,88.80
2023-01-28T09:27:19.322Z,88.59
2023-01-28T09:28:19.281Z,88.39
2023-01-28T09:29:19.264Z,88.70
2023-01-28T09:30:19.221Z,88.80
2023-01-28T09:31:19.324Z,88.80
2023-01-28T09:32:19.299Z,88.65
2023-01-28T09:33:19.193Z,88.65
2023-01-28T09:34:19.176Z,89.07
2023-01-28T09:35:19.183Z,88.45
2023-01-28T09:36:19.188Z,88.65
2023-01-28T09:37:19.157Z,88.56
2023-01-28T09:38:19.274Z,88.76
2023-01-28T09:39:19.119Z,88.72
2023-01-28T09:40:19.125Z,88.86
2023-01-28T09:41:19.100Z,88.65
2023-01-28T09:42:19.114Z,88.45
2023-01-28T09:43:19.080Z,88.45
2023-01-28T09:44:19.097Z,88.56
2023-01-28T09:45:19.065Z,88.35
2023-01-28T09:46:19.083Z,88.45
2023-01-28T09:47:19.030Z,88.56
2023-01-28T09:48:19.043Z,88.45
2023-01-28T09:49:19.034Z,88.70
2023-01-28T09:50:19.024Z,88.49
2023-01-28T09:51:19.008Z,88.59
2023-01-28T09:52:18.970Z,88.56
2023-01-28T09:53:18.984Z,88.76
2023-01-28T09:54:19.079Z,88.96
2023-01-28T09:55:18.937Z,88.96
2023-01-28T09:56:18.969Z,89.28
2023-01-28T09:57:18.922Z,89.28
2023-01-28T09:58:18.924Z,89.13
2023-01-28T09:59:18.913Z,89.23
2023-01-28T10:00:19.167Z,89.13
2023-01-28T10:01:18.869Z,88.92
2023-01-28T10:02:18.994Z,89.34
2023-01-28T10:03:18.845Z,89.29
2023-01-28T10:04:18.841Z,89.19
2023-01-28T10:05:18.828Z,88.99
2023-01-28T10:06:18.852Z,89.19
2023-01-28T10:07:18.808Z,88.89
2023-01-28T10:08:19.033Z,88.99
2023-01-28T10:09:18.786Z,88.57
2023-01-28T10:10:18.867Z,88.99
2023-01-28T10:11:18.754Z,89.40
2023-01-28T10:12:18.748Z,88.95
2023-01-28T10:13:21.599Z,89.29
2023-01-28T10:14:18.771Z,89.15
2023-01-28T10:15:18.738Z,89.05
2023-01-28T10:16:18.738Z,89.15
2023-01-28T10:17:18.731Z,88.95
2023-01-28T10:18:18.691Z,89.15
2023-01-28T10:19:18.670Z,89.15
2023-01-28T10:20:18.700Z,89.11
2023-01-28T10:21:18.645Z,88.43
2023-01-28T10:22:18.636Z,88.59
2023-01-28T10:23:18.615Z,89.01
2023-01-28T10:24:18.730Z,88.49
2023-01-28T10:25:18.606Z,88.39
2023-01-28T10:26:18.617Z,88.18
2023-01-28T10:27:18.575Z,88.18
2023-01-28T10:28:18.570Z,88.39
2023-01-28T10:29:18.552Z,88.59
2023-01-28T10:30:18.535Z,88.59
2023-01-28T10:31:18.554Z,88.49
2023-01-28T10:32:18.567Z,88.49
2023-01-28T10:33:18.518Z,88.49
2023-01-28T10:34:20.108Z,88.59
2023-01-28T10:35:18.501Z,88.70
2023-01-28T10:36:18.478Z,88.14
2023-01-28T10:37:18.459Z,88.24
2023-01-28T10:38:18.516Z,88.14
2023-01-28T10:39:18.442Z,88.56
2023-01-28T10:40:18.436Z,88.35
2023-01-28T10:41:18.415Z,88.24
2023-01-28T10:42:18.405Z,88.14
2023-01-28T10:43:18.411Z,88.14
2023-01-28T10:44:18.407Z,88.41
2023-01-28T10:45:18.372Z,88.45
2023-01-28T10:46:18.467Z,88.14
2023-01-28T10:47:18.350Z,88.45
2023-01-28T10:48:18.528Z,88.45
2023-01-28T10:49:18.327Z,88.56
2023-01-28T10:50:18.365Z,88.56
2023-01-28T10:51:18.305Z,88.45
2023-01-28T10:52:18.284Z,88.14
2023-01-28T10:53:18.281Z,88.31
2023-01-28T10:54:18.264Z,88.24
2023-01-28T10:55:18.281Z,88.41
2023-01-28T10:56:18.303Z,88.31
2023-01-28T10:57:18.242Z,88.56
2023-01-28T10:58:18.226Z,88.14
2023-01-28T10:59:18.204Z,88.20
2023-01-28T11:00:18.196Z,88.41
2023-01-28T11:01:18.249Z,88.51
2023-01-28T11:02:18.227Z,88.41
2023-01-28T11:03:18.168Z,88.45
2023-01-28T11:04:18.199Z,88.62
2023-01-28T11:05:18.144Z,88.45
2023-01-28T11:06:18.133Z,88.45
2023-01-28T11:07:18.123Z,88.56
2023-01-28T11:08:18.212Z,88.56
2023-01-28T11:09:18.117Z,88.56
2023-01-28T11:10:18.120Z,88.39
2023-01-28T11:11:18.113Z,88.39
2023-01-28T11:12:18.060Z,88.49
2023-01-28T11:13:18.062Z,88.39
2023-01-28T11:14:18.077Z,88.39
2023-01-28T11:15:18.072Z,88.59
2023-01-28T11:16:18.022Z,88.39
2023-01-28T11:17:18.074Z,88.39
2023-01-28T11:18:18.057Z,88.39
2023-01-28T11:19:18.012Z,88.29
2023-01-28T11:20:18.410Z,88.18
2023-01-28T11:21:17.962Z,88.49
2023-01-28T11:22:17.950Z,88.29
2023-01-28T11:23:17.962Z,88.49
2023-01-28T11:24:17.966Z,88.59
2023-01-28T11:25:17.933Z,88.29
2023-01-28T11:26:17.933Z,88.18
2023-01-28T11:27:17.898Z,88.39
2023-01-28T11:28:17.883Z,88.35
2023-01-28T11:29:17.896Z,88.45
2023-01-28T11:30:17.980Z,88.35
2023-01-28T11:31:18.077Z,88.45
2023-01-28T11:32:17.873Z,88.76
2023-01-28T11:33:17.824Z,88.56
2023-01-28T11:34:17.814Z,88.45
2023-01-28T11:35:17.804Z,88.31
2023-01-28T11:36:17.823Z,88.76
2023-01-28T11:37:17.803Z,88.72
2023-01-28T11:38:17.797Z,89.03
2023-01-28T11:39:17.795Z,89.07
2023-01-28T11:40:20.545Z,88.92
2023-01-28T11:41:17.852Z,88.31
2023-01-28T11:42:17.730Z,88.62
2023-01-28T11:43:17.714Z,88.20
2023-01-28T11:44:17.828Z,88.51
2023-01-28T11:45:17.695Z,88.31
2023-01-28T11:46:17.773Z,88.62
2023-01-28T11:47:17.666Z,88.35
2023-01-28T11:48:17.659Z,88.24
2023-01-28T11:49:17.657Z,88.35
2023-01-28T11:50:18.010Z,88.56
2023-01-28T11:51:17.621Z,88.56
2023-01-28T11:52:17.629Z,88.66
2023-01-28T11:53:17.650Z,88.66
2023-01-28T11:54:17.583Z,88.14
2023-01-28T11:55:17.581Z,88.35
2023-01-28T11:56:17.745Z,88.35
2023-01-28T11:57:17.552Z,88.39
2023-01-28T11:58:17.545Z,88.49
2023-01-28T11:59:17.526Z,88.29
2023-01-28T12:00:17.945Z,88.59
2023-01-28T12:01:17.525Z,88.59
2023-01-28T12:02:17.624Z,88.49
2023-01-28T12:03:17.484Z,88.59
2023-01-28T12:04:17.475Z,88.49
2023-01-28T12:05:17.456Z,88.49
2023-01-28T12:06:17.467Z,88.29
2023-01-28T12:07:17.436Z,88.18
2023-01-28T12:08:17.489Z,88.23
2023-01-28T12:09:17.411Z,88.29
2023-01-28T12:10:17.786Z,88.33
2023-01-28T12:11:17.401Z,88.53
2023-01-28T12:12:17.403Z,88.53
2023-01-28T12:13:17.363Z,88.33
2023-01-28T12:14:17.416Z,87.92
2023-01-28T12:15:17.361Z,88.43
2023-01-28T12:16:17.481Z,88.33
2023-01-28T12:17:17.323Z,88.33
2023-01-28T12:18:17.308Z,88.47
2023-01-28T12:19:17.299Z,88.06
2023-01-28T12:20:17.676Z,87.96
2023-01-28T12:21:17.285Z,88.57
2023-01-28T12:22:17.311Z,87.96
2023-01-28T12:23:17.255Z,88.10
2023-01-28T12:24:17.302Z,87.79
2023-01-28T12:25:17.231Z,88.10
2023-01-28T12:26:17.251Z,87.69
2023-01-28T12:27:17.225Z,88.14
2023-01-28T12:28:17.206Z,87.63
2023-01-28T12:29:17.212Z,87.66
2023-01-28T12:30:17.714Z,88.18
2023-01-28T12:31:17.307Z,87.98
2023-01-28T12:32:17.164Z,87.66
2023-01-28T12:33:17.673Z,88.02
2023-01-28T12:34:17.138Z,88.02
2023-01-28T12:35:17.115Z,87.81
2023-01-28T12:36:17.121Z,88.02
2023-01-28T12:37:17.117Z,87.71
2023-01-28T12:38:17.111Z,87.81
2023-01-28T12:39:17.075Z,88.37
2023-01-28T12:40:17.544Z,87.81
2023-01-28T12:41:17.048Z,87.95
2023-01-28T12:42:17.043Z,87.85
2023-01-28T12:43:17.044Z,88.37
2023-01-28T12:44:17.059Z,88.37
2023-01-28T12:45:17.014Z,88.51
2023-01-28T12:46:17.016Z,88.51
2023-01-28T12:47:16.983Z,88.61
2023-01-28T12:48:16.968Z,88.71
2023-01-28T12:49:16.963Z,88.82
2023-01-28T12:50:17.378Z,89.03
2023-01-28T12:51:16.940Z,88.82
2023-01-28T12:52:16.927Z,88.82